Time;durP1;ratioP1;P1;durP2;ratioP2;P2;SDS_P1;SDS_P2;PMS_P1;PMS_P2;Temp;Humidity;BMP_temperature;BMP_pressure;BME280_temperature;BME280_humidity;BME280_pressure;Samples;Min_cycle;Max_cycle;Signal;HPM_P1;HPM_P2
2022/01/01 00:01:52;;;;;;;194.50;97.85;;;6.20;99.90;;;;;;5037830;28;20029;-79
2022/01/01 00:04:23;;;;;;;255.20;105.00;;;6.20;99.90;;;;;;5034834;28;20026;-78
2022/01/01 00:06:49;;;;;;;183.13;102.60;;;6.00;99.90;;;;;;5050103;28;20025;-79
2022/01/01 00:09:18;;;;;;;199.68;108.30;;;6.00;99.90;;;;;;5041862;28;20036;-79
2022/01/01 00:11:44;;;;;;;229.07;121.43;;;6.00;99.90;;;;;;5016834;28;20032;-79
2022/01/01 00:14:09;;;;;;;214.80;119.93;;;6.00;99.90;;;;;;5032232;28;20017;-79
2022/01/01 00:16:38;;;;;;;253.07;87.50;;;6.00;99.90;;;;;;5047887;28;20131;-79
2022/01/01 00:19:08;;;;;;;165.45;79.82;;;6.00;99.90;;;;;;5046716;28;20522;-79
2022/01/01 00:21:37;;;;;;;214.27;90.75;;;6.00;99.90;;;;;;5029499;28;20095;-79
2022/01/01 00:24:12;;;;;;;158.52;79.10;;;6.00;99.90;;;;;;5041766;28;20606;-79
2022/01/01 00:26:49;;;;;;;188.82;75.45;;;6.00;99.90;;;;;;5028890;28;20074;-79
2022/01/01 00:29:20;;;;;;;158.77;78.45;;;6.10;99.90;;;;;;5045016;28;20052;-79
2022/01/01 00:31:47;;;;;;;178.15;79.20;;;6.10;99.90;;;;;;5036638;28;20039;-78
2022/01/01 00:34:16;;;;;;;135.57;64.82;;;6.10;99.90;;;;;;5028553;28;20028;-78
2022/01/01 00:36:45;;;;;;;247.30;70.65;;;6.20;99.90;;;;;;5031808;28;20388;-79
2022/01/01 00:39:27;;;;;;;149.75;66.07;;;6.20;99.90;;;;;;5035060;28;20017;-79
2022/01/01 00:41:56;;;;;;;196.50;65.82;;;6.20;99.90;;;;;;5011120;28;20064;-79
2022/01/01 00:44:26;;;;;;;304.55;67.38;;;6.20;99.90;;;;;;5037353;28;20025;-78
2022/01/01 00:46:58;;;;;;;302.63;61.90;;;6.20;99.90;;;;;;5044567;28;20056;-79
2022/01/01 00:49:23;;;;;;;260.77;54.55;;;6.20;99.90;;;;;;5013524;28;20033;-78
2022/01/01 00:51:52;;;;;;;129.05;54.00;;;6.10;99.90;;;;;;5033271;28;20028;-78
2022/01/01 00:54:19;;;;;;;237.18;52.65;;;6.00;99.90;;;;;;5043190;28;20025;-78
2022/01/01 00:56:50;;;;;;;321.63;47.90;;;6.10;99.90;;;;;;5041961;28;20116;-79
2022/01/01 00:59:28;;;;;;;158.57;46.80;;;6.10;99.90;;;;;;5037556;28;20036;-78
2022/01/01 01:01:53;;;;;;;108.70;47.72;;;6.10;99.90;;;;;;5035002;28;20308;-79
2022/01/01 01:04:19;;;;;;;109.45;48.08;;;6.10;99.90;;;;;;5046205;28;20037;-79
2022/01/01 01:06:53;;;;;;;132.38;54.22;;;6.20;99.90;;;;;;5045701;28;20044;-79
2022/01/01 01:09:25;;;;;;;132.35;56.25;;;6.30;99.90;;;;;;5048686;28;20032;-78
2022/01/01 01:12:12;;;;;;;128.82;60.80;;;6.40;99.90;;;;;;5035185;28;20037;-78
2022/01/01 01:14:45;;;;;;;175.63;54.00;;;6.40;99.90;;;;;;5049653;28;20463;-78
2022/01/01 01:17:13;;;;;;;170.48;52.10;;;6.40;99.90;;;;;;5011799;28;20099;-78
2022/01/01 01:19:42;;;;;;;163.48;58.55;;;6.30;99.90;;;;;;5028626;28;20037;-78
2022/01/01 01:22:31;;;;;;;130.73;57.83;;;6.20;99.90;;;;;;5030810;28;20069;-79
2022/01/01 01:24:59;;;;;;;138.63;53.05;;;6.30;99.90;;;;;;5027452;28;20029;-78
2022/01/01 01:27:29;;;;;;;94.85;51.03;;;6.30;99.90;;;;;;5039226;28;20136;-79
2022/01/01 01:29:59;;;;;;;96.05;51.05;;;6.40;99.90;;;;;;5040080;28;20115;-79
2022/01/01 01:32:51;;;;;;;111.85;51.83;;;6.40;99.90;;;;;;5027229;28;20412;-79
2022/01/01 01:35:18;;;;;;;97.35;48.35;;;6.40;99.90;;;;;;5039257;28;20033;-79
2022/01/01 01:37:46;;;;;;;135.18;49.58;;;6.40;99.90;;;;;;5053196;28;20119;-79
2022/01/01 01:40:15;;;;;;;141.93;47.53;;;6.40;99.90;;;;;;5043284;28;20484;-79
2022/01/01 01:42:47;;;;;;;98.68;46.58;;;6.40;99.90;;;;;;5013884;28;20060;-79
2022/01/01 01:45:27;;;;;;;100.72;48.55;;;6.40;99.90;;;;;;4994895;28;20038;-79
2022/01/01 01:48:06;;;;;;;101.80;51.22;;;6.30;99.90;;;;;;4990948;28;20038;-79
2022/01/01 01:54:47;;;;;;;108.00;54.55;;;6.30;99.90;;;;;;4980500;28;20037;-78
2022/01/01 01:57:18;;;;;;;135.10;62.35;;;6.30;99.90;;;;;;5013989;28;20033;-79
2022/01/01 01:59:58;;;;;;;152.07;64.97;;;6.40;99.90;;;;;;5002278;28;20034;-79
2022/01/01 02:02:33;;;;;;;141.20;61.15;;;6.40;99.90;;;;;;5032518;28;20033;-78
2022/01/01 02:05:11;;;;;;;151.85;58.90;;;6.40;99.90;;;;;;5022239;28;20393;-79
2022/01/01 02:07:38;;;;;;;116.63;60.38;;;6.30;99.90;;;;;;5013658;28;20076;-79
2022/01/01 02:10:19;;;;;;;165.25;62.83;;;6.30;99.90;;;;;;5019328;28;20026;-79
2022/01/01 02:12:53;;;;;;;145.30;61.65;;;6.30;99.90;;;;;;5029878;28;20045;-79
2022/01/01 02:15:44;;;;;;;124.32;60.13;;;6.20;99.90;;;;;;4998605;28;20034;-78
2022/01/01 02:18:14;;;;;;;144.98;64.07;;;6.20;99.90;;;;;;4992405;28;20033;-79
2022/01/01 02:20:49;;;;;;;164.38;70.97;;;6.20;99.90;;;;;;5012291;28;20026;-79
2022/01/01 02:23:21;;;;;;;155.38;72.93;;;6.20;99.90;;;;;;5002518;28;20055;-79
2022/01/01 02:26:12;;;;;;;158.43;75.68;;;6.20;99.90;;;;;;5020594;28;20018;-79
2022/01/01 02:28:43;;;;;;;160.63;75.10;;;6.20;99.90;;;;;;5012526;28;20033;-79
2022/01/01 02:31:15;;;;;;;173.15;74.07;;;6.10;99.90;;;;;;5014571;28;20026;-79
2022/01/01 02:33:44;;;;;;;172.25;80.55;;;6.10;99.90;;;;;;4994521;28;20048;-79
2022/01/01 02:36:11;;;;;;;147.35;77.97;;;6.10;99.90;;;;;;5014690;28;20054;-79
2022/01/01 02:38:37;;;;;;;154.50;76.10;;;6.10;99.90;;;;;;5012337;28;20022;-78
2022/01/01 02:41:13;;;;;;;154.68;82.45;;;6.10;99.90;;;;;;5014734;28;20041;-78
2022/01/01 02:43:54;;;;;;;149.02;78.43;;;6.00;99.90;;;;;;5025905;28;20111;-79
2022/01/01 02:46:20;;;;;;;170.80;81.47;;;6.00;99.90;;;;;;5042808;28;20018;-79
2022/01/01 02:48:48;;;;;;;152.20;77.03;;;6.10;99.90;;;;;;5031847;28;20136;-79
2022/01/01 02:51:31;;;;;;;167.43;77.00;;;6.00;99.90;;;;;;5048913;28;20027;-79
2022/01/01 02:54:00;;;;;;;194.13;78.00;;;6.00;99.90;;;;;;5040444;28;20071;-78
2022/01/01 02:56:32;;;;;;;167.27;77.38;;;6.10;99.90;;;;;;5033424;28;20391;-79
2022/01/01 02:59:04;;;;;;;150.38;70.53;;;6.00;99.90;;;;;;5033827;28;20027;-79
2022/01/01 03:01:39;;;;;;;120.43;64.93;;;6.00;99.90;;;;;;5022132;28;20048;-79
2022/01/01 03:04:34;;;;;;;;;;;;;;;;;;;;;
2022/01/01 03:07:01;;;;;;;150.50;69.03;;;6.00;99.90;;;;;;5032833;28;20030;-79
2022/01/01 03:09:34;;;;;;;201.13;74.97;;;6.00;99.90;;;;;;5012624;28;20033;-79
2022/01/01 03:12:18;;;;;;;156.55;65.80;;;6.00;99.90;;;;;;5037020;28;20423;-79
2022/01/01 03:14:50;;;;;;;122.43;66.93;;;6.00;99.90;;;;;;5010909;28;20523;-79
2022/01/01 03:17:21;;;;;;;114.43;64.18;;;6.00;99.90;;;;;;5031520;28;20119;-79
2022/01/01 03:20:44;;;;;;;126.75;64.80;;;6.00;99.90;;;;;;5031901;28;20692;-78
2022/01/01 03:23:16;;;;;;;119.82;61.85;;;6.00;99.90;;;;;;5041251;28;20617;-79
2022/01/01 03:25:45;;;;;;;110.53;58.75;;;6.10;99.90;;;;;;5032268;28;20041;-79
2022/01/01 03:28:48;;;;;;;103.32;58.58;;;6.00;99.90;;;;;;5025115;28;20064;-79
2022/01/01 03:38:31;;;;;;;117.20;61.55;;;6.00;99.90;;;;;;5030727;28;20071;-79
2022/01/01 03:48:18;;;;;;;109.65;59.20;;;6.00;99.90;;;;;;4998005;28;20033;-79
2022/01/01 03:50:47;;;;;;;111.85;58.70;;;6.00;99.90;;;;;;4995802;28;20033;-79
2022/01/01 03:57:06;;;;;;;;;;;;;;;;;;;;;
2022/01/01 04:04:35;;;;;;;;;;;;;;;;;;;;;
2022/01/01 04:06:53;;;;;;;100.75;56.92;;;6.00;99.90;;;;;;4914264;29;20047;-79
2022/01/01 04:09:20;;;;;;;101.85;55.88;;;6.00;99.90;;;;;;4975546;28;20038;-79
2022/01/01 04:11:51;;;;;;;141.65;57.35;;;6.00;99.90;;;;;;4971339;28;20034;-79
2022/01/01 04:14:17;;;;;;;149.27;60.78;;;5.90;99.90;;;;;;4964502;28;20050;-79
2022/01/01 04:16:45;;;;;;;121.07;63.75;;;5.90;99.90;;;;;;4972122;28;20035;-79
2022/01/01 04:19:56;;;;;;;;;;;;;;;;;;;;;
2022/01/01 04:22:33;;;;;;;201.60;58.40;;;5.80;99.90;;;;;;4994635;28;20055;-79
2022/01/01 04:25:53;;;;;;;126.03;56.08;;;5.90;99.90;;;;;;5018904;28;20104;-79
2022/01/01 04:28:03;;;;;;;171.88;55.15;;;5.90;99.90;;;;;;5007661;28;20112;-79
2022/01/01 04:38:01;;;;;;;107.28;55.80;;;5.90;99.90;;;;;;4993759;28;20037;-79
2022/01/01 04:40:33;;;;;;;98.15;54.63;;;5.90;99.90;;;;;;4881060;29;20593;-78
2022/01/01 04:43:27;;;;;;;164.07;55.22;;;5.90;99.90;;;;;;4888502;28;20070;-80
2022/01/01 04:45:56;;;;;;;134.57;53.83;;;5.90;99.90;;;;;;4974334;28;20125;-80
2022/01/01 04:48:36;;;;;;;99.88;50.72;;;5.80;99.90;;;;;;4989956;28;20030;-80
2022/01/01 04:51:39;;;;;;;;;;;;;;;;;;;;;
2022/01/01 04:54:18;;;;;;;133.00;50.25;;;5.70;99.90;;;;;;5001395;28;20040;-80
2022/01/01 04:57:39;;;;;;;123.80;50.75;;;5.70;99.90;;;;;;5013053;28;20076;-79
2022/01/01 05:03:51;;;;;;;112.20;44.28;;;5.60;99.90;;;;;;4935781;28;20188;-79
2022/01/01 05:06:49;;;;;;;80.72;45.20;;;5.70;99.90;;;;;;4982039;28;20066;-80
2022/01/01 05:09:41;;;;;;;106.60;46.92;;;5.70;99.90;;;;;;4987058;28;20075;-79
2022/01/01 05:12:07;;;;;;;100.03;45.67;;;5.70;99.90;;;;;;5020914;28;20046;-81
2022/01/01 05:14:34;;;;;;;142.48;44.67;;;5.70;99.90;;;;;;5017679;28;20032;-81
2022/01/01 05:17:00;;;;;;;130.43;47.28;;;5.70;99.90;;;;;;5022983;28;20026;-81
2022/01/01 05:19:26;;;;;;;99.75;46.08;;;5.80;99.90;;;;;;5016484;28;20024;-81
2022/01/01 05:21:55;;;;;;;114.85;46.88;;;5.80;99.90;;;;;;5014631;28;20073;-81
2022/01/01 05:24:21;;;;;;;106.18;46.63;;;5.80;99.90;;;;;;5014375;28;20571;-81
2022/01/01 05:26:47;;;;;;;137.10;49.75;;;5.70;99.90;;;;;;5021424;28;20026;-81
2022/01/01 05:29:13;;;;;;;130.95;45.22;;;5.60;99.90;;;;;;5016776;28;20022;-80
2022/01/01 05:31:39;;;;;;;95.28;46.38;;;5.60;99.90;;;;;;5019274;28;20057;-81
2022/01/01 05:34:05;;;;;;;130.35;50.17;;;5.60;99.90;;;;;;5013307;28;20105;-81
2022/01/01 05:36:31;;;;;;;112.13;49.40;;;5.50;99.90;;;;;;5014904;28;20454;-81
2022/01/01 05:38:57;;;;;;;103.25;49.63;;;5.40;99.90;;;;;;5007647;28;20025;-81
2022/01/01 05:41:22;;;;;;;98.82;47.90;;;5.50;99.90;;;;;;5010904;28;20052;-81
2022/01/01 05:43:49;;;;;;;118.25;48.20;;;5.50;99.90;;;;;;5014203;28;20038;-80
2022/01/01 05:46:15;;;;;;;82.80;45.00;;;5.60;99.90;;;;;;5022417;28;20246;-81
2022/01/01 05:48:41;;;;;;;91.05;43.80;;;5.70;99.90;;;;;;5020180;28;20052;-81
2022/01/01 05:51:08;;;;;;;88.47;44.25;;;5.60;99.90;;;;;;5013443;28;20037;-80
2022/01/01 05:53:34;;;;;;;80.05;47.83;;;5.70;99.90;;;;;;5009070;28;20018;-81
2022/01/01 05:56:00;;;;;;;90.88;46.40;;;5.70;99.90;;;;;;5021990;28;20030;-81
2022/01/01 05:58:25;;;;;;;129.93;46.78;;;5.70;99.90;;;;;;5025241;28;20030;-81
2022/01/01 06:00:51;;;;;;;91.32;42.92;;;5.70;99.90;;;;;;5017125;28;20571;-81
2022/01/01 06:03:18;;;;;;;110.32;47.03;;;5.60;99.90;;;;;;5033230;28;20104;-81
2022/01/01 06:05:44;;;;;;;101.35;42.10;;;5.50;99.90;;;;;;5016935;28;20030;-81
2022/01/01 06:08:10;;;;;;;123.25;45.58;;;5.50;99.90;;;;;;4995923;28;20026;-81
2022/01/01 06:10:36;;;;;;;113.47;38.80;;;5.50;99.90;;;;;;5020403;28;20025;-81
2022/01/01 06:13:06;;;;;;;84.40;40.15;;;5.50;99.90;;;;;;4996456;28;20029;-81
2022/01/01 06:15:32;;;;;;;77.63;38.30;;;5.50;99.90;;;;;;5025040;28;20059;-81
2022/01/01 06:17:57;;;;;;;92.88;38.38;;;5.50;99.90;;;;;;5015029;28;20030;-81
2022/01/01 06:20:23;;;;;;;91.63;35.65;;;5.50;99.90;;;;;;5014513;28;20026;-81
2022/01/01 06:22:49;;;;;;;63.88;35.40;;;5.50;99.90;;;;;;5030140;28;20037;-81
2022/01/01 06:25:15;;;;;;;91.35;35.83;;;5.50;99.90;;;;;;5012612;28;20025;-81
2022/01/01 06:27:41;;;;;;;65.93;34.92;;;5.50;99.90;;;;;;5001692;28;20034;-81
2022/01/01 06:30:07;;;;;;;53.65;34.38;;;5.40;99.90;;;;;;5012730;28;20051;-81
2022/01/01 06:32:33;;;;;;;55.92;32.30;;;5.50;99.90;;;;;;5028525;28;20017;-81
2022/01/01 06:34:59;;;;;;;95.18;35.08;;;5.50;99.90;;;;;;5020975;28;20030;-81
2022/01/01 06:37:25;;;;;;;84.90;33.38;;;5.40;99.90;;;;;;5013352;28;20064;-81
2022/01/01 06:39:51;;;;;;;103.40;34.60;;;5.40;99.90;;;;;;4991783;28;20125;-81
2022/01/01 06:42:17;;;;;;;86.32;36.03;;;5.40;99.90;;;;;;5022612;28;20492;-81
2022/01/01 06:44:43;;;;;;;91.43;37.58;;;5.40;99.90;;;;;;5024704;28;20029;-81
2022/01/01 06:47:09;;;;;;;69.45;33.35;;;5.40;99.90;;;;;;5033187;28;20034;-81
2022/01/01 06:49:35;;;;;;;70.22;34.80;;;5.50;99.90;;;;;;5033493;28;20029;-81
2022/01/01 06:52:02;;;;;;;79.72;34.55;;;5.50;99.90;;;;;;5037504;28;20029;-80
2022/01/01 06:54:28;;;;;;;80.88;36.17;;;5.50;99.90;;;;;;5018984;28;20040;-81
2022/01/01 06:56:53;;;;;;;87.95;36.53;;;5.50;99.90;;;;;;5049669;28;20029;-81
2022/01/01 06:59:19;;;;;;;106.70;35.38;;;5.50;99.90;;;;;;5049306;28;20025;-81
2022/01/01 07:01:45;;;;;;;69.13;36.63;;;5.50;99.90;;;;;;5015878;28;20041;-81
2022/01/01 07:04:10;;;;;;;94.47;36.40;;;5.60;99.90;;;;;;5032288;28;20041;-80
2022/01/01 07:06:37;;;;;;;103.55;37.25;;;5.70;99.90;;;;;;5032973;28;20388;-81
2022/01/01 07:09:04;;;;;;;81.75;36.53;;;5.70;99.90;;;;;;5016205;28;20439;-80
2022/01/01 07:11:29;;;;;;;82.55;37.75;;;5.80;99.90;;;;;;5011756;28;20566;-81
2022/01/01 07:13:55;;;;;;;65.10;37.95;;;5.90;99.90;;;;;;5015313;28;20069;-81
2022/01/01 07:16:21;;;;;;;75.03;37.63;;;5.90;99.90;;;;;;5044894;28;20036;-81
2022/01/01 07:18:47;;;;;;;97.93;38.75;;;6.10;99.90;;;;;;5031514;28;20032;-81
2022/01/01 07:21:12;;;;;;;66.90;31.48;;;6.10;99.90;;;;;;5034372;28;20088;-81
2022/01/01 07:23:38;;;;;;;72.90;35.92;;;6.20;99.90;;;;;;5030885;28;20017;-81
2022/01/01 07:26:04;;;;;;;105.57;33.33;;;6.10;99.90;;;;;;5044071;28;20032;-81
2022/01/01 07:28:30;;;;;;;82.47;33.95;;;6.10;99.90;;;;;;5025299;28;20025;-78
2022/01/01 07:30:56;;;;;;;59.40;28.77;;;6.10;99.90;;;;;;5047907;28;20062;-81
2022/01/01 07:33:21;;;;;;;111.63;30.08;;;6.20;99.90;;;;;;5014047;28;20362;-81
2022/01/01 07:35:47;;;;;;;60.35;30.10;;;6.20;99.90;;;;;;5032711;28;20188;-81
2022/01/01 07:38:13;;;;;;;57.63;27.50;;;6.10;99.90;;;;;;5025028;28;20018;-81
2022/01/01 07:40:39;;;;;;;67.38;28.92;;;6.20;99.90;;;;;;5030994;28;20029;-81
2022/01/01 07:43:16;;;;;;;49.05;28.40;;;6.20;99.90;;;;;;5048273;28;20049;-81
2022/01/01 07:45:48;;;;;;;55.35;28.67;;;6.20;99.90;;;;;;5046154;28;20522;-78
2022/01/01 07:48:14;;;;;;;;;;;6.30;99.90;;;;;;5012276;28;20055;-78
2022/01/01 07:50:40;;;;;;;57.45;26.42;;;6.30;99.90;;;;;;5044194;28;19919;-80
2022/01/01 07:53:08;;;;;;;66.57;28.30;;;6.30;99.90;;;;;;5029769;28;20392;-81
2022/01/01 07:55:33;;;;;;;71.85;25.92;;;6.30;99.90;;;;;;5033808;28;20565;-81
2022/01/01 07:57:59;;;;;;;85.35;27.85;;;6.30;99.90;;;;;;5028243;28;20116;-81
2022/01/01 08:00:25;;;;;;;72.80;26.63;;;6.30;99.90;;;;;;5036460;28;20407;-81
2022/01/01 08:02:51;;;;;;;62.80;26.95;;;6.30;99.90;;;;;;5030882;28;20496;-81
2022/01/01 08:05:17;;;;;;;77.03;26.17;;;6.40;99.90;;;;;;5033096;28;20387;-81
2022/01/01 08:07:44;;;;;;;75.55;26.98;;;6.40;99.90;;;;;;5030990;28;20029;-81
2022/01/01 08:10:11;;;;;;;89.43;27.05;;;6.50;99.90;;;;;;5013367;28;20029;-81
2022/01/01 08:12:37;;;;;;;62.08;25.45;;;6.50;99.90;;;;;;5043015;28;20429;-81
2022/01/01 08:15:05;;;;;;;45.67;25.23;;;6.60;99.90;;;;;;5046752;28;20487;-81
2022/01/01 08:17:31;;;;;;;57.63;25.38;;;6.60;99.90;;;;;;5050688;28;20685;-81
2022/01/01 08:19:57;;;;;;;59.85;25.95;;;6.60;99.90;;;;;;5033370;28;20036;-81
2022/01/01 08:22:23;;;;;;;66.97;27.73;;;6.70;99.90;;;;;;5019957;28;20088;-81
2022/01/01 08:24:49;;;;;;;86.18;24.38;;;6.70;99.90;;;;;;5023913;28;20017;-81
2022/01/01 08:27:15;;;;;;;62.38;23.85;;;6.70;99.90;;;;;;5031379;28;20392;-81
2022/01/01 08:29:41;;;;;;;66.93;24.27;;;6.70;99.90;;;;;;5033814;28;20028;-81
2022/01/01 08:32:07;;;;;;;66.70;22.25;;;6.80;99.90;;;;;;5021446;28;20030;-81
2022/01/01 08:34:33;;;;;;;88.88;23.20;;;6.80;99.90;;;;;;5023691;28;20030;-80
2022/01/01 08:36:59;;;;;;;60.35;23.60;;;6.70;99.90;;;;;;5024844;28;20032;-81
2022/01/01 08:39:25;;;;;;;47.00;23.48;;;6.50;99.90;;;;;;5044430;28;20066;-81
2022/01/01 08:41:50;;;;;;;56.47;25.25;;;6.60;99.90;;;;;;5038900;28;20050;-80
2022/01/01 08:44:19;;;;;;;118.95;27.98;;;6.80;99.90;;;;;;5025618;28;20030;-81
2022/01/01 08:46:45;;;;;;;61.17;29.33;;;6.90;99.90;;;;;;5011958;28;20057;-82
2022/01/01 08:49:12;;;;;;;166.70;31.42;;;7.10;99.90;;;;;;5011869;28;20069;-81
2022/01/01 08:51:42;;;;;;;110.88;30.75;;;7.10;99.90;;;;;;4994597;28;20120;-81
2022/01/01 08:54:08;;;;;;;169.38;32.70;;;7.10;99.90;;;;;;5012081;28;20029;-81
2022/01/01 08:56:34;;;;;;;77.10;32.80;;;7.10;99.90;;;;;;5029718;28;20026;-81
2022/01/01 08:59:00;;;;;;;212.95;41.33;;;7.10;99.90;;;;;;5012418;28;20041;-79
2022/01/01 09:01:26;;;;;;;99.47;40.85;;;7.10;99.90;;;;;;5014021;28;20059;-82
2022/01/01 09:03:52;;;;;;;210.45;48.10;;;7.00;99.90;;;;;;5010381;28;20038;-82
2022/01/01 09:06:18;;;;;;;135.95;44.08;;;6.90;99.90;;;;;;5024004;28;20041;-82
2022/01/01 09:08:43;;;;;;;115.65;44.65;;;7.00;99.90;;;;;;5007700;28;20027;-82
2022/01/01 09:11:11;;;;;;;103.43;43.08;;;7.00;99.90;;;;;;5027428;28;20033;-81
2022/01/01 09:13:43;;;;;;;202.60;46.25;;;7.10;99.90;;;;;;5010603;28;20029;-79
2022/01/01 09:16:14;;;;;;;179.63;47.30;;;7.00;99.90;;;;;;5027018;28;20112;-79
2022/01/01 09:18:42;;;;;;;166.57;49.80;;;7.00;99.90;;;;;;5014268;28;20022;-79
2022/01/01 09:21:08;;;;;;;117.72;46.00;;;7.00;99.90;;;;;;5015306;28;20064;-79
2022/01/01 09:23:34;;;;;;;102.60;47.60;;;7.20;99.90;;;;;;5014278;28;20034;-79
2022/01/01 09:26:03;;;;;;;103.43;45.83;;;7.20;99.90;;;;;;5013424;28;20034;-80
2022/01/01 09:28:30;;;;;;;104.57;46.13;;;7.40;99.90;;;;;;5013304;28;20030;-81
2022/01/01 09:31:00;;;;;;;80.72;46.10;;;7.60;99.90;;;;;;5018802;28;20120;-81
2022/01/01 09:33:31;;;;;;;99.80;46.28;;;7.60;99.90;;;;;;5014147;28;20057;-80
2022/01/01 09:36:01;;;;;;;99.53;49.03;;;7.80;99.90;;;;;;5024980;28;20419;-81
2022/01/01 09:38:34;;;;;;;102.97;45.03;;;7.90;99.90;;;;;;4978428;28;20026;-80
2022/01/01 09:41:03;;;;;;;84.60;43.00;;;8.00;99.90;;;;;;5029016;28;20033;-81
2022/01/01 09:43:31;;;;;;;86.47;44.90;;;8.00;99.90;;;;;;5019295;28;20032;-81
2022/01/01 09:45:58;;;;;;;79.32;44.22;;;8.10;99.90;;;;;;5012752;28;20049;-80
2022/01/01 09:48:25;;;;;;;79.55;43.05;;;8.30;99.90;;;;;;5010505;28;20025;-80
2022/01/01 09:50:57;;;;;;;83.10;44.53;;;8.30;99.90;;;;;;5007807;28;20026;-80
2022/01/01 09:53:24;;;;;;;85.85;45.72;;;8.40;99.90;;;;;;4987453;28;20045;-80
2022/01/01 09:55:51;;;;;;;82.70;42.38;;;8.50;99.90;;;;;;5009679;28;20057;-81
2022/01/01 09:58:22;;;;;;;87.22;41.65;;;8.60;99.90;;;;;;5033492;28;20029;-79
2022/01/01 10:00:49;;;;;;;78.00;41.75;;;8.70;99.90;;;;;;5016183;28;20110;-79
2022/01/01 10:03:15;;;;;;;74.82;41.20;;;8.60;99.90;;;;;;5026483;28;20583;-78
2022/01/01 10:06:01;;;;;;;78.15;42.08;;;8.60;99.90;;;;;;5009885;28;20112;-79
2022/01/01 10:08:29;;;;;;;67.32;38.53;;;8.40;99.90;;;;;;5008775;28;20022;-80
2022/01/01 10:11:16;;;;;;;61.65;39.95;;;8.30;99.90;;;;;;5013122;28;20022;-79
2022/01/01 10:13:43;;;;;;;62.72;37.00;;;8.40;99.90;;;;;;5020904;28;20021;-77
2022/01/01 10:16:15;;;;;;;56.17;36.92;;;8.50;99.90;;;;;;5012704;28;20524;-80
2022/01/01 10:18:47;;;;;;;58.45;35.70;;;8.50;99.90;;;;;;4996021;28;20034;-76
2022/01/01 10:21:15;;;;;;;63.67;37.03;;;8.50;99.90;;;;;;5017776;28;20048;-79
2022/01/01 10:23:43;;;;;;;53.20;33.75;;;8.60;99.90;;;;;;5031573;28;20112;-79
2022/01/01 10:29:07;;;;;;;45.38;30.50;;;8.60;99.90;;;;;;5011439;28;20032;-78
2022/01/01 10:31:34;;;;;;;49.35;31.63;;;8.60;99.90;;;;;;5018037;28;20033;-78
2022/01/01 10:34:01;;;;;;;50.83;33.15;;;8.50;99.90;;;;;;5024365;28;20477;-78
2022/01/01 10:36:31;;;;;;;52.42;34.58;;;8.30;99.90;;;;;;5002224;28;20094;-78
2022/01/01 10:39:11;;;;;;;41.33;30.17;;;8.00;99.90;;;;;;5011158;28;20498;-80
2022/01/01 10:41:44;;;;;;;46.28;31.23;;;7.80;99.90;;;;;;5007469;28;20052;-79
2022/01/01 10:44:12;;;;;;;45.97;30.58;;;7.90;99.90;;;;;;5021054;28;20029;-79
2022/01/01 10:46:38;;;;;;;40.60;29.02;;;8.20;99.90;;;;;;5045532;28;20024;-79
2022/01/01 10:52:24;;;;;;;50.53;33.95;;;8.70;99.90;;;;;;5033419;28;20500;-78
2022/01/01 10:54:51;;;;;;;47.25;31.95;;;9.00;99.90;;;;;;5037023;28;20079;-79
2022/01/01 10:57:39;;;;;;;59.00;35.17;;;9.30;99.90;;;;;;5044983;28;20029;-79
2022/01/01 11:00:18;;;;;;;61.72;37.60;;;9.50;99.90;;;;;;5038504;28;20110;-78
2022/01/01 11:02:59;;;;;;;66.30;38.35;;;9.70;99.90;;;;;;5004199;28;20056;-79
2022/01/01 11:05:34;;;;;;;63.20;39.72;;;9.80;99.90;;;;;;5033557;28;20033;-79
2022/01/01 11:08:01;;;;;;;63.17;40.63;;;9.40;99.90;;;;;;5034740;28;20029;-78
2022/01/01 11:10:28;;;;;;;66.90;40.15;;;9.20;99.90;;;;;;5024481;28;20074;-78
2022/01/01 11:12:56;;;;;;;64.55;39.47;;;9.20;99.90;;;;;;5028166;28;20360;-79
2022/01/01 11:15:28;;;;;;;51.17;33.58;;;9.30;99.90;;;;;;5043996;28;20103;-79
2022/01/01 11:17:58;;;;;;;61.83;34.85;;;9.40;99.90;;;;;;5034428;28;20060;-80
2022/01/01 11:20:26;;;;;;;44.55;29.83;;;9.30;99.90;;;;;;5033183;28;20025;-79
2022/01/01 11:22:52;;;;;;;73.40;40.72;;;9.20;99.90;;;;;;5032168;28;20487;-80
2022/01/01 11:25:19;;;;;;;75.78;41.42;;;9.40;99.90;;;;;;5036996;28;20052;-80
2022/01/01 11:27:46;;;;;;;72.00;42.33;;;9.60;99.90;;;;;;5014312;28;20392;-79
2022/01/01 11:30:13;;;;;;;75.57;43.55;;;9.80;99.90;;;;;;5037093;28;20029;-79
2022/01/01 11:33:09;;;;;;;70.72;41.95;;;9.90;99.90;;;;;;5032259;28;20037;-79
2022/01/01 11:35:37;;;;;;;67.55;41.42;;;9.90;99.90;;;;;;5037651;28;20419;-78
2022/01/01 11:38:13;;;;;;;72.85;42.70;;;9.80;99.90;;;;;;5032421;28;20071;-79
2022/01/01 11:40:42;;;;;;;73.93;47.00;;;9.90;99.90;;;;;;5026135;28;20014;-78
2022/01/01 11:43:36;;;;;;;75.35;46.78;;;10.00;99.90;;;;;;5050838;28;20048;-79
2022/01/01 11:46:35;;;;;;;83.47;47.95;;;10.20;99.90;;;;;;5015445;28;20387;-79
2022/01/01 11:49:04;;;;;;;82.20;45.38;;;10.30;99.90;;;;;;5033215;28;20024;-79
2022/01/01 11:51:35;;;;;;;70.28;45.97;;;10.20;99.90;;;;;;5045268;28;20025;-80
2022/01/01 11:54:18;;;;;;;72.82;46.10;;;10.10;99.90;;;;;;5037601;28;20018;-80
2022/01/01 11:56:50;;;;;;;79.07;45.45;;;10.10;99.90;;;;;;5037801;28;20021;-79
2022/01/01 11:59:21;;;;;;;78.60;45.10;;;10.30;99.90;;;;;;5008284;28;20167;-79
2022/01/01 12:01:48;;;;;;;69.97;44.85;;;10.60;99.90;;;;;;5033050;28;20296;-79
2022/01/01 12:04:27;;;;;;;64.30;42.60;;;10.60;99.90;;;;;;5030374;28;20099;-80
2022/01/01 12:06:54;;;;;;;64.43;41.78;;;10.40;99.90;;;;;;5040718;28;20167;-79
2022/01/01 12:09:19;;;;;;;66.97;42.22;;;10.30;99.90;;;;;;5030656;28;20022;-79
2022/01/01 12:11:55;;;;;;;71.65;45.08;;;10.40;99.90;;;;;;5037829;28;20035;-80
2022/01/01 12:14:31;;;;;;;68.90;42.03;;;10.90;99.90;;;;;;5043497;28;20086;-79
2022/01/01 12:16:56;;;;;;;78.78;47.13;;;11.30;99.90;;;;;;5032135;28;20092;-79
2022/01/01 12:19:24;;;;;;;67.35;43.83;;;11.80;99.90;;;;;;5038843;28;20029;-83
2022/01/01 12:22:04;;;;;;;64.63;43.42;;;12.50;99.90;;;;;;5008570;28;20022;-81
2022/01/01 12:24:35;;;;;;;66.55;44.15;;;12.00;99.90;;;;;;5030144;28;20035;-82
2022/01/01 12:27:14;;;;;;;66.10;40.83;;;11.70;99.90;;;;;;5027863;28;20033;-82
2022/01/01 12:29:41;;;;;;;62.35;39.67;;;12.10;99.90;;;;;;5005900;28;20029;-82
2022/01/01 12:32:08;;;;;;;56.28;37.53;;;12.80;99.90;;;;;;5030852;28;20492;-83
2022/01/01 12:34:36;;;;;;;51.88;37.67;;;13.40;99.90;;;;;;5034441;28;20107;-83
2022/01/01 12:37:08;;;;;;;62.85;41.38;;;13.90;99.90;;;;;;5016816;28;20033;-82
2022/01/01 12:39:59;;;;;;;61.72;39.60;;;13.20;99.90;;;;;;5033133;28;20017;-82
2022/01/01 12:42:35;;;;;;;59.97;41.20;;;13.70;99.90;;;;;;5024991;28;20104;-83
2022/01/01 12:45:06;;;;;;;57.58;40.40;;;13.70;99.90;;;;;;5039848;28;20482;-81
2022/01/01 12:47:32;;;;;;;64.70;42.88;;;14.20;99.90;;;;;;5034045;28;20025;-81
2022/01/01 12:50:04;;;;;;;52.08;36.28;;;15.10;99.90;;;;;;5018331;28;20025;-82
2022/01/01 12:52:31;;;;;;;50.15;33.90;;;15.90;99.90;;;;;;5017980;28;20032;-82
2022/01/01 12:54:58;;;;;;;44.28;32.05;;;17.20;99.90;;;;;;5034001;28;20116;-81
2022/01/01 12:57:25;;;;;;;44.75;33.83;;;18.50;99.90;;;;;;5015574;28;20029;-81
2022/01/01 12:59:57;;;;;;;45.45;32.40;;;19.20;99.90;;;;;;5038192;28;20128;-81
2022/01/01 13:02:26;;;;;;;49.83;35.92;;;19.80;99.90;;;;;;5034851;28;20033;-80
2022/01/01 13:04:52;;;;;;;49.50;33.78;;;20.90;99.90;;;;;;5036056;28;20029;-80
2022/01/01 13:07:24;;;;;;;46.88;35.67;;;21.40;97.10;;;;;;5047422;28;20510;-80
2022/01/01 13:09:50;;;;;;;45.95;34.30;;;21.80;95.00;;;;;;5044878;28;20029;-80
2022/01/01 13:12:18;;;;;;;47.35;35.33;;;22.10;92.70;;;;;;5034634;28;20278;-80
2022/01/01 13:14:44;;;;;;;52.97;37.35;;;22.00;91.90;;;;;;5040255;28;20021;-81
2022/01/01 13:17:10;;;;;;;52.05;40.38;;;21.80;91.40;;;;;;5053518;28;20029;-80
2022/01/01 13:19:36;;;;;;;52.67;40.05;;;22.00;90.60;;;;;;5046611;28;20025;-79
2022/01/01 13:22:08;;;;;;;53.90;37.72;;;22.10;88.80;;;;;;5052870;28;20036;-80
2022/01/01 13:24:37;;;;;;;50.95;38.83;;;21.30;90.80;;;;;;5046603;28;20021;-80
2022/01/01 13:27:03;;;;;;;43.08;32.20;;;21.10;91.30;;;;;;5045187;28;20113;-81
2022/01/01 13:29:30;;;;;;;45.80;34.13;;;21.00;91.30;;;;;;5038732;28;20017;-80
2022/01/01 13:32:00;;;;;;;48.10;34.35;;;20.60;91.10;;;;;;5052753;28;20057;-81
2022/01/01 13:34:27;;;;;;;51.67;34.42;;;19.90;92.10;;;;;;5050778;28;20506;-82
2022/01/01 13:37:03;;;;;;;50.17;34.88;;;19.70;92.80;;;;;;5043371;28;20385;-80
2022/01/01 13:39:31;;;;;;;48.42;35.65;;;18.80;95.00;;;;;;5035310;28;20112;-79
2022/01/01 13:41:58;;;;;;;47.88;36.45;;;17.10;99.90;;;;;;5044389;28;20041;-80